Time;durP1;ratioP1;P1;durP2;ratioP2;P2;SDS_P1;SDS_P2;PMS_P1;PMS_P2;Temp;Humidity;BMP_temperature;BMP_pressure;BME280_temperature;BME280_humidity;BME280_pressure;Samples;Min_cycle;Max_cycle;Signal;HPM_P1;HPM_P2
2023/12/04 00:02:04;;;;;;;27.63;14.02;;;4.10;99.90;;;;;;5146525;28;20284;-46
2023/12/04 00:04:30;;;;;;;23.77;12.40;;;4.10;99.90;;;;;;5146509;28;20031;-45
2023/12/04 00:06:55;;;;;;;24.52;12.77;;;4.10;99.90;;;;;;5145370;28;20106;-44
2023/12/04 00:09:23;;;;;;;20.35;10.13;;;4.10;99.90;;;;;;5146405;28;20031;-46
2023/12/04 00:11:49;;;;;;;21.00;11.57;;;4.10;99.90;;;;;;5149128;27;20091;-45
2023/12/04 00:14:14;;;;;;;21.40;10.77;;;4.20;99.90;;;;;;5150434;27;20226;-53
2023/12/04 00:16:40;;;;;;;21.85;11.35;;;4.10;99.90;;;;;;5149465;27;20029;-45
2023/12/04 00:19:06;;;;;;;23.70;12.40;;;4.10;99.90;;;;;;5149394;27;20027;-47
2023/12/04 00:21:32;;;;;;;28.92;14.95;;;4.10;99.90;;;;;;5150509;27;20023;-44
2023/12/04 00:23:58;;;;;;;25.95;13.88;;;4.10;99.90;;;;;;5150157;27;20360;-45
2023/12/04 00:26:24;;;;;;;20.92;11.20;;;4.10;99.90;;;;;;5149256;27;20192;-46
2023/12/04 00:28:49;;;;;;;28.40;14.48;;;4.10;99.90;;;;;;5150327;27;20019;-45
2023/12/04 00:31:15;;;;;;;25.17;12.00;;;4.10;99.90;;;;;;5150130;27;20249;-45
2023/12/04 00:33:41;;;;;;;21.88;11.45;;;4.10;99.90;;;;;;5150369;27;20173;-47
2023/12/04 00:36:07;;;;;;;19.70;11.43;;;4.10;99.90;;;;;;5150115;27;20072;-47
2023/12/04 00:38:32;;;;;;;20.13;10.13;;;4.10;99.90;;;;;;5149177;27;20019;-44
2023/12/04 00:40:58;;;;;;;20.20;10.65;;;4.10;99.90;;;;;;5150114;27;20039;-45
2023/12/04 00:43:24;;;;;;;19.70;11.02;;;4.10;99.90;;;;;;5150069;27;20090;-45
2023/12/04 00:45:49;;;;;;;19.00;10.95;;;4.10;99.90;;;;;;5149743;27;20023;-45
2023/12/04 00:48:15;;;;;;;19.02;9.52;;;4.10;99.90;;;;;;5149965;27;20027;-44
2023/12/04 00:50:41;;;;;;;17.13;9.70;;;4.10;99.90;;;;;;5148854;27;20268;-45
2023/12/04 00:53:06;;;;;;;21.58;10.82;;;4.10;99.90;;;;;;5149906;27;20224;-44
2023/12/04 00:55:32;;;;;;;17.80;9.95;;;4.10;99.90;;;;;;5148900;27;20304;-44
2023/12/04 00:57:58;;;;;;;18.85;10.13;;;4.10;99.90;;;;;;5149582;27;20046;-44
2023/12/04 01:00:23;;;;;;;16.52;10.40;;;4.10;99.90;;;;;;5149623;27;20034;-45
2023/12/04 01:02:49;;;;;;;16.42;8.02;;;4.10;99.90;;;;;;5149682;27;20288;-44
2023/12/04 01:05:14;;;;;;;18.88;9.20;;;4.10;99.90;;;;;;5149671;27;20248;-44
2023/12/04 01:07:40;;;;;;;12.70;7.90;;;4.10;99.90;;;;;;5149094;27;20051;-44
2023/12/04 01:10:06;;;;;;;13.98;8.30;;;4.10;99.90;;;;;;5149459;27;20080;-44
2023/12/04 01:12:32;;;;;;;14.15;8.55;;;4.10;99.90;;;;;;5149391;27;20034;-44
2023/12/04 01:14:57;;;;;;;13.13;7.60;;;4.10;99.90;;;;;;5149047;27;20284;-45
2023/12/04 01:17:23;;;;;;;13.57;7.72;;;4.00;99.90;;;;;;5149441;27;20083;-44
2023/12/04 01:19:49;;;;;;;12.10;7.85;;;4.10;99.90;;;;;;5148409;27;20082;-45
2023/12/04 01:22:15;;;;;;;10.20;6.25;;;4.10;99.90;;;;;;5148169;27;20027;-44
2023/12/04 01:24:40;;;;;;;12.52;7.15;;;4.10;99.90;;;;;;5149252;27;20051;-45
2023/12/04 01:27:06;;;;;;;14.90;7.45;;;4.10;99.90;;;;;;5148179;27;20068;-44
2023/12/04 01:29:32;;;;;;;12.50;7.30;;;4.10;99.90;;;;;;5148615;27;20023;-44
2023/12/04 01:31:57;;;;;;;12.30;7.65;;;4.10;99.90;;;;;;5147924;27;20029;-47
2023/12/04 01:34:23;;;;;;;11.10;7.25;;;4.10;99.90;;;;;;5149340;27;20035;-45
2023/12/04 01:36:49;;;;;;;10.93;6.50;;;4.10;99.90;;;;;;5149017;27;20281;-45
2023/12/04 01:39:14;;;;;;;10.65;6.60;;;4.10;99.90;;;;;;5149041;27;20344;-45
2023/12/04 01:41:40;;;;;;;11.27;5.55;;;4.10;99.90;;;;;;5148580;27;20023;-46
2023/12/04 01:44:06;;;;;;;11.68;7.03;;;4.10;99.90;;;;;;5148848;27;20079;-45
2023/12/04 01:46:31;;;;;;;9.77;6.07;;;4.10;99.90;;;;;;5148492;27;20031;-46
2023/12/04 01:48:58;;;;;;;11.65;6.00;;;4.10;99.90;;;;;;5147796;27;20030;-45
2023/12/04 01:51:24;;;;;;;8.13;5.22;;;4.10;99.90;;;;;;5147671;27;20353;-45
2023/12/04 01:53:49;;;;;;;9.05;5.05;;;4.10;99.90;;;;;;5147494;27;20030;-46
2023/12/04 01:56:16;;;;;;;9.32;6.07;;;4.10;99.90;;;;;;5148507;27;20150;-46
2023/12/04 01:58:41;;;;;;;8.27;4.90;;;4.10;99.90;;;;;;5147536;27;20023;-46
2023/12/04 02:01:07;;;;;;;8.18;5.32;;;4.10;99.90;;;;;;5148636;27;20041;-45
2023/12/04 02:03:33;;;;;;;7.70;5.78;;;4.10;99.90;;;;;;5148055;27;20086;-46
2023/12/04 02:06:03;;;;;;;10.13;5.85;;;4.20;99.90;;;;;;5147718;27;20034;-45
2023/12/04 02:08:29;;;;;;;7.28;4.70;;;4.20;99.90;;;;;;5147174;27;20074;-45
2023/12/04 02:10:55;;;;;;;11.75;5.70;;;4.20;99.90;;;;;;5148623;27;20031;-45
2023/12/04 02:13:21;;;;;;;7.75;4.22;;;4.20;99.90;;;;;;5148231;27;20019;-45
2023/12/04 02:15:47;;;;;;;9.25;5.30;;;4.20;99.90;;;;;;5147216;27;20149;-45
2023/12/04 02:18:12;;;;;;;8.02;4.57;;;4.20;99.90;;;;;;5130078;27;20265;-47
2023/12/04 02:20:38;;;;;;;7.95;4.70;;;4.20;99.90;;;;;;5129920;27;20038;-44
2023/12/04 02:23:04;;;;;;;7.35;4.78;;;4.20;99.90;;;;;;5148050;27;20308;-47
2023/12/04 02:25:30;;;;;;;9.02;4.40;;;4.20;99.90;;;;;;5148020;27;20031;-46
2023/12/04 02:27:57;;;;;;;8.25;4.47;;;4.30;99.90;;;;;;5146985;27;20026;-48
2023/12/04 02:30:23;;;;;;;6.68;4.47;;;4.30;99.90;;;;;;5146848;27;20083;-44
2023/12/04 02:32:49;;;;;;;9.10;5.03;;;4.30;99.90;;;;;;5146885;27;20033;-44
2023/12/04 02:35:16;;;;;;;9.70;4.63;;;4.30;99.90;;;;;;5129021;27;20181;-44
2023/12/04 02:37:42;;;;;;;9.02;4.80;;;4.30;99.90;;;;;;5146802;27;20206;-47
2023/12/04 02:40:08;;;;;;;10.63;5.93;;;4.40;99.90;;;;;;5146751;27;20038;-47
2023/12/04 02:42:33;;;;;;;8.43;4.68;;;4.40;99.90;;;;;;5147466;27;20076;-45
2023/12/04 02:44:59;;;;;;;10.82;5.55;;;4.40;99.90;;;;;;5147623;27;20035;-44
2023/12/04 02:47:25;;;;;;;9.05;4.90;;;4.40;99.90;;;;;;5129552;27;20070;-44
2023/12/04 02:49:51;;;;;;;8.30;4.90;;;4.40;99.90;;;;;;5147257;27;20023;-47
2023/12/04 02:52:16;;;;;;;8.50;4.95;;;4.40;99.90;;;;;;5147536;27;20027;-45
2023/12/04 02:54:42;;;;;;;7.85;4.90;;;4.40;99.90;;;;;;5147609;27;20303;-47
2023/12/04 02:57:08;;;;;;;9.60;4.60;;;4.40;99.90;;;;;;5129359;27;20019;-44
2023/12/04 02:59:33;;;;;;;8.27;4.53;;;4.50;99.90;;;;;;5147446;27;20046;-44
2023/12/04 03:01:59;;;;;;;8.98;5.40;;;4.40;99.90;;;;;;5147331;27;20090;-45
2023/12/04 03:04:26;;;;;;;10.35;5.18;;;4.40;99.90;;;;;;5147297;27;20023;-45
2023/12/04 03:06:51;;;;;;;8.65;5.00;;;4.50;99.90;;;;;;5146985;27;20092;-52
2023/12/04 03:09:17;;;;;;;10.38;5.85;;;4.50;99.90;;;;;;5147131;27;20038;-44
2023/12/04 03:11:43;;;;;;;11.38;6.38;;;4.50;99.90;;;;;;5146032;27;20034;-44
2023/12/04 03:14:09;;;;;;;11.13;5.78;;;4.50;99.90;;;;;;5146945;27;20034;-44
2023/12/04 03:16:35;;;;;;;9.45;4.78;;;4.50;99.90;;;;;;5147049;27;20065;-45
2023/12/04 03:19:01;;;;;;;10.65;5.65;;;4.50;99.90;;;;;;5147234;27;20308;-48
2023/12/04 03:21:28;;;;;;;12.60;5.93;;;4.50;99.90;;;;;;5145845;27;20031;-44
2023/12/04 03:23:54;;;;;;;9.60;5.20;;;4.60;99.90;;;;;;5146604;27;20091;-45
2023/12/04 03:26:20;;;;;;;10.25;5.32;;;4.50;99.90;;;;;;5146892;27;20277;-45
2023/12/04 03:28:45;;;;;;;12.43;5.88;;;4.60;99.90;;;;;;5146877;27;20035;-45
2023/12/04 03:31:11;;;;;;;9.52;5.30;;;4.50;99.90;;;;;;5146876;27;20091;-43
2023/12/04 03:33:37;;;;;;;14.85;6.28;;;4.50;99.90;;;;;;5128740;28;20019;-44
2023/12/04 03:36:03;;;;;;;13.05;6.10;;;4.50;99.90;;;;;;5145716;27;20027;-43
2023/12/04 03:38:28;;;;;;;12.40;6.72;;;4.50;99.90;;;;;;5146931;27;20173;-43
2023/12/04 03:40:54;;;;;;;13.27;5.93;;;4.50;99.90;;;;;;5146347;27;20038;-44
2023/12/04 03:43:20;;;;;;;11.90;6.13;;;4.60;99.90;;;;;;5146804;27;20088;-44
2023/12/04 03:45:45;;;;;;;12.85;6.65;;;4.50;99.90;;;;;;5144687;27;20030;-45
2023/12/04 03:48:11;;;;;;;11.10;6.18;;;4.60;99.90;;;;;;5146451;28;20026;-45
2023/12/04 03:50:37;;;;;;;11.57;6.22;;;4.60;99.90;;;;;;5145406;28;20042;-44
2023/12/04 03:53:02;;;;;;;11.27;6.55;;;4.60;99.90;;;;;;5146106;28;20076;-44
2023/12/04 03:55:28;;;;;;;12.10;6.18;;;4.60;99.90;;;;;;5146573;28;20022;-45
2023/12/04 03:57:54;;;;;;;9.18;5.28;;;4.60;99.90;;;;;;5146515;28;20086;-46
2023/12/04 04:00:20;;;;;;;9.10;5.40;;;4.70;99.90;;;;;;5145417;28;20066;-45
2023/12/04 04:02:46;;;;;;;12.00;6.43;;;4.70;99.90;;;;;;5146430;28;20023;-45
2023/12/04 04:05:11;;;;;;;10.30;5.15;;;4.70;99.90;;;;;;5146607;28;20047;-44
2023/12/04 04:07:37;;;;;;;13.00;5.65;;;4.70;99.90;;;;;;5146200;28;20201;-44
2023/12/04 04:10:06;;;;;;;11.60;5.45;;;4.70;99.90;;;;;;5145957;28;20027;-44
2023/12/04 04:12:32;;;;;;;9.90;5.15;;;4.70;99.90;;;;;;5146335;27;20031;-44
2023/12/04 04:14:58;;;;;;;11.02;4.90;;;4.70;99.90;;;;;;5146506;28;20030;-47
2023/12/04 04:17:25;;;;;;;10.85;5.75;;;4.70;99.90;;;;;;5146452;28;20015;-44
2023/12/04 04:19:52;;;;;;;8.95;5.13;;;4.70;99.90;;;;;;5145164;28;20181;-44
2023/12/04 04:22:18;;;;;;;7.93;4.90;;;4.70;99.90;;;;;;5146085;28;20206;-44
2023/12/04 04:24:43;;;;;;;11.60;4.50;;;4.70;99.90;;;;;;5145210;28;20027;-44
2023/12/04 04:27:09;;;;;;;12.23;4.68;;;4.70;99.90;;;;;;5146419;28;20084;-43
2023/12/04 04:29:35;;;;;;;6.90;4.05;;;4.80;99.90;;;;;;5146274;28;20169;-43
2023/12/04 04:32:00;;;;;;;11.82;5.32;;;4.80;99.90;;;;;;5146021;28;20060;-45
2023/12/04 04:34:26;;;;;;;9.00;4.35;;;4.80;99.90;;;;;;5146267;28;20042;-44
2023/12/04 04:36:52;;;;;;;10.82;5.40;;;4.80;99.90;;;;;;5146198;28;20026;-47
2023/12/04 04:39:17;;;;;;;12.57;5.70;;;4.80;99.90;;;;;;5146233;28;20034;-44
2023/12/04 04:41:44;;;;;;;9.57;4.32;;;4.80;99.90;;;;;;5145991;28;20085;-45
2023/12/04 04:44:09;;;;;;;8.65;4.45;;;4.80;99.90;;;;;;5145975;28;20027;-44
2023/12/04 04:46:35;;;;;;;8.90;4.60;;;4.80;99.90;;;;;;5146047;28;20016;-45
2023/12/04 04:49:01;;;;;;;8.88;4.00;;;4.80;99.90;;;;;;5146150;28;20107;-45
2023/12/04 04:51:28;;;;;;;8.90;4.43;;;4.80;99.90;;;;;;5146063;28;20038;-47
2023/12/04 04:53:54;;;;;;;8.07;4.00;;;4.80;99.90;;;;;;5146003;28;20020;-47
2023/12/04 04:56:19;;;;;;;7.72;4.00;;;4.80;99.90;;;;;;5144997;27;20027;-44
2023/12/04 04:58:45;;;;;;;7.68;4.00;;;4.80;99.90;;;;;;5149879;27;20285;-45
2023/12/04 05:01:29;;;;;;;8.35;4.40;;;4.80;99.90;;;;;;5149697;27;20222;-44
2023/12/04 05:03:55;;;;;;;7.68;4.05;;;4.80;99.90;;;;;;5149362;27;20027;-44
2023/12/04 05:06:22;;;;;;;5.40;3.40;;;4.80;99.90;;;;;;5149330;27;20027;-45
2023/12/04 05:08:50;;;;;;;8.80;3.90;;;4.80;99.90;;;;;;5149349;27;20043;-46
2023/12/04 05:11:16;;;;;;;5.90;3.10;;;4.80;99.90;;;;;;5149321;27;20080;-44
2023/12/04 05:13:42;;;;;;;7.50;3.67;;;4.80;99.90;;;;;;5149023;27;20184;-45
2023/12/04 05:16:08;;;;;;;9.10;3.30;;;4.80;99.90;;;;;;5148245;27;20015;-44
2023/12/04 05:18:33;;;;;;;7.30;3.25;;;4.70;99.90;;;;;;5149270;27;20288;-45
2023/12/04 05:20:59;;;;;;;8.45;3.55;;;4.70;99.90;;;;;;5149519;27;20054;-44
2023/12/04 05:23:25;;;;;;;5.63;3.13;;;4.70;99.90;;;;;;5149304;27;20030;-45
2023/12/04 05:25:50;;;;;;;8.60;3.08;;;4.80;99.90;;;;;;5149165;27;20041;-46
2023/12/04 05:28:16;;;;;;;6.05;3.45;;;4.70;99.90;;;;;;5149387;27;20037;-44
2023/12/04 05:30:42;;;;;;;7.25;3.38;;;4.70;99.90;;;;;;5148286;27;20038;-47
2023/12/04 05:33:07;;;;;;;7.25;3.05;;;4.80;99.90;;;;;;5148662;27;20058;-45
2023/12/04 05:35:34;;;;;;;6.22;3.17;;;4.70;99.90;;;;;;5149123;27;20197;-44
2023/12/04 05:38:00;;;;;;;7.07;2.83;;;4.80;99.90;;;;;;5149038;27;20086;-45
2023/12/04 05:40:26;;;;;;;7.82;3.20;;;4.80;99.90;;;;;;5148831;27;20042;-46
2023/12/04 05:42:51;;;;;;;8.30;3.35;;;4.80;99.90;;;;;;5148819;27;20029;-44
2023/12/04 05:45:17;;;;;;;5.28;2.90;;;4.80;99.90;;;;;;5148944;27;20026;-44
2023/12/04 05:47:43;;;;;;;6.22;2.33;;;4.80;99.90;;;;;;5147488;27;20034;-45
2023/12/04 05:50:09;;;;;;;4.78;2.20;;;4.80;99.90;;;;;;5148500;27;20285;-45
2023/12/04 05:52:34;;;;;;;6.50;2.80;;;4.80;99.90;;;;;;5147706;27;20328;-44
2023/12/04 05:55:00;;;;;;;6.43;2.80;;;4.80;99.90;;;;;;5148658;27;20047;-44
2023/12/04 05:57:25;;;;;;;5.38;2.30;;;4.80;99.90;;;;;;5148674;27;20218;-44
2023/12/04 05:59:51;;;;;;;7.97;2.60;;;4.80;99.90;;;;;;5147373;27;20226;-44
2023/12/04 06:02:17;;;;;;;5.32;2.60;;;4.80;99.90;;;;;;5148280;27;20269;-46
2023/12/04 06:04:42;;;;;;;6.05;2.85;;;4.90;99.90;;;;;;5148051;27;20018;-45
2023/12/04 06:07:09;;;;;;;9.73;3.60;;;4.90;99.90;;;;;;5148204;27;20078;-47
2023/12/04 06:09:36;;;;;;;7.60;2.97;;;4.90;99.90;;;;;;5146587;27;20047;-44
2023/12/04 06:12:07;;;;;;;11.52;3.40;;;4.90;99.90;;;;;;5147439;27;20011;-44
2023/12/04 06:14:33;;;;;;;8.85;3.17;;;4.90;99.90;;;;;;5148534;27;20042;-47
2023/12/04 06:16:59;;;;;;;6.35;3.13;;;4.90;99.90;;;;;;5148281;27;20023;-46
2023/12/04 06:19:25;;;;;;;6.78;3.00;;;4.90;99.90;;;;;;5148194;27;20037;-47
2023/12/04 06:21:52;;;;;;;8.68;3.63;;;4.90;99.90;;;;;;5147929;27;20218;-44
2023/12/04 06:24:18;;;;;;;6.38;3.50;;;4.90;99.90;;;;;;5148080;27;20296;-46
2023/12/04 06:26:43;;;;;;;6.57;3.28;;;4.90;99.90;;;;;;5148179;27;20078;-45
2023/12/04 06:29:09;;;;;;;8.25;3.58;;;4.90;99.90;;;;;;5147222;27;20053;-45
2023/12/04 06:31:35;;;;;;;7.72;3.47;;;4.90;99.90;;;;;;5146932;27;20038;-49
2023/12/04 06:34:01;;;;;;;7.40;3.88;;;4.90;99.90;;;;;;5147489;27;20277;-46
2023/12/04 06:36:27;;;;;;;8.65;4.15;;;4.90;99.90;;;;;;5147502;27;20046;-48
2023/12/04 06:38:53;;;;;;;8.43;3.45;;;5.00;99.90;;;;;;5147826;27;20053;-45
2023/12/04 06:41:21;;;;;;;9.15;4.53;;;5.00;99.90;;;;;;5146827;27;20027;-49
2023/12/04 06:43:47;;;;;;;6.45;3.03;;;5.00;99.90;;;;;;5147675;27;20053;-45
2023/12/04 06:46:13;;;;;;;9.15;4.38;;;5.00;99.90;;;;;;5147548;27;20094;-45
2023/12/04 06:48:39;;;;;;;7.93;3.55;;;5.00;99.90;;;;;;5112583;27;20023;-47
2023/12/04 06:51:05;;;;;;;8.23;4.07;;;5.00;99.90;;;;;;5146470;27;20023;-46
2023/12/04 06:53:31;;;;;;;5.80;2.92;;;5.00;99.90;;;;;;5147578;27;20299;-46
2023/12/04 06:55:57;;;;;;;8.43;3.25;;;5.00;99.90;;;;;;5147396;27;20027;-48
2023/12/04 06:58:23;;;;;;;8.98;3.80;;;5.00;99.90;;;;;;5147310;27;20265;-47
2023/12/04 07:00:49;;;;;;;7.25;3.60;;;5.00;99.90;;;;;;5147363;27;20084;-46
2023/12/04 07:03:14;;;;;;;6.82;2.95;;;5.10;99.90;;;;;;5147390;27;20031;-47
2023/12/04 07:05:40;;;;;;;12.63;4.07;;;5.00;99.90;;;;;;5147193;27;20027;-46
2023/12/04 07:08:06;;;;;;;8.50;3.53;;;5.00;99.90;;;;;;5147000;27;20062;-45
2023/12/04 07:10:31;;;;;;;4.40;2.90;;;5.10;99.90;;;;;;5146129;27;20083;-46
2023/12/04 07:12:57;;;;;;;6.80;2.58;;;5.00;99.90;;;;;;5147277;27;20031;-46
2023/12/04 07:15:22;;;;;;;10.02;3.20;;;5.10;99.90;;;;;;5147214;27;20031;-46
2023/12/04 07:17:48;;;;;;;6.22;3.17;;;5.00;99.90;;;;;;5146992;27;20046;-45
2023/12/04 07:20:14;;;;;;;8.77;2.88;;;5.10;99.90;;;;;;5146830;27;20019;-45
2023/12/04 07:22:39;;;;;;;10.63;3.75;;;5.10;99.90;;;;;;5147313;27;20031;-47
2023/12/04 07:25:09;;;;;;;10.60;4.10;;;5.10;99.90;;;;;;5146586;27;20037;-45
2023/12/04 07:27:35;;;;;;;7.82;3.35;;;5.10;99.90;;;;;;5146011;27;20031;-46
2023/12/04 07:30:00;;;;;;;11.63;3.53;;;5.20;99.90;;;;;;5146942;27;20288;-45
2023/12/04 07:32:26;;;;;;;8.07;3.42;;;5.20;99.90;;;;;;5146743;27;20030;-46
2023/12/04 07:34:52;;;;;;;8.05;3.28;;;5.20;99.90;;;;;;5146914;27;20034;-48
2023/12/04 07:37:17;;;;;;;8.63;3.17;;;5.20;99.90;;;;;;5146847;27;20027;-47
2023/12/04 07:39:46;;;;;;;8.05;3.17;;;5.30;99.90;;;;;;5146662;27;20027;-46
2023/12/04 07:42:12;;;;;;;5.57;2.78;;;5.30;99.90;;;;;;5146473;27;20027;-47
2023/12/04 07:44:37;;;;;;;14.38;10.82;;;5.30;99.90;;;;;;5146427;27;20196;-46
2023/12/04 07:47:03;;;;;;;6.82;2.78;;;5.30;99.90;;;;;;5146552;27;20104;-46
2023/12/04 07:49:29;;;;;;;5.68;3.20;;;5.30;99.90;;;;;;5145596;27;20035;-46
2023/12/04 07:51:55;;;;;;;7.30;2.78;;;5.40;99.90;;;;;;5145456;28;20038;-46
2023/12/04 07:54:22;;;;;;;6.03;2.80;;;5.40;99.90;;;;;;5128555;28;20086;-46
2023/12/04 07:56:48;;;;;;;10.25;2.80;;;5.40;99.90;;;;;;5146078;28;20027;-46
2023/12/04 07:59:13;;;;;;;9.25;3.13;;;5.40;99.90;;;;;;5146536;28;20046;-46
2023/12/04 08:01:39;;;;;;;5.95;2.53;;;5.40;99.90;;;;;;5145978;28;20059;-49
2023/12/04 08:04:05;;;;;;;8.70;2.80;;;5.40;99.90;;;;;;5146355;28;20019;-46
2023/12/04 08:06:31;;;;;;;8.60;3.20;;;5.50;99.90;;;;;;5146032;28;20031;-49
2023/12/04 08:08:57;;;;;;;6.72;2.58;;;5.50;99.90;;;;;;5146494;28;20019;-46
2023/12/04 08:11:23;;;;;;;6.40;2.65;;;5.50;99.90;;;;;;5146445;28;20066;-47
2023/12/04 08:13:48;;;;;;;7.45;3.10;;;5.50;99.90;;;;;;5145162;28;20287;-46
2023/12/04 08:16:17;;;;;;;8.38;3.10;;;5.50;99.90;;;;;;5146506;28;20019;-49
2023/12/04 08:18:43;;;;;;;7.15;2.78;;;5.50;99.90;;;;;;5146090;28;20172;-48
2023/12/04 08:21:09;;;;;;;5.55;2.60;;;5.50;99.90;;;;;;5146393;28;20292;-47
2023/12/04 08:23:35;;;;;;;8.90;3.55;;;5.50;99.90;;;;;;5146329;28;20098;-47
2023/12/04 08:26:00;;;;;;;8.38;2.35;;;5.50;99.90;;;;;;5146039;28;20234;-49
2023/12/04 08:28:26;;;;;;;8.10;3.00;;;5.50;99.90;;;;;;5144737;28;20093;-49
2023/12/04 08:30:52;;;;;;;6.45;2.28;;;5.60;99.90;;;;;;5146111;27;20027;-46
2023/12/04 08:33:20;;;;;;;5.28;2.15;;;5.60;99.90;;;;;;5149643;27;20160;-45
2023/12/04 08:35:46;;;;;;;8.07;2.75;;;5.60;99.90;;;;;;5150003;27;20031;-48
2023/12/04 08:38:11;;;;;;;7.80;2.22;;;5.60;99.90;;;;;;5149825;27;20277;-48
2023/12/04 08:40:37;;;;;;;4.85;2.03;;;5.60;99.90;;;;;;5149676;27;20094;-49
2023/12/04 08:43:03;;;;;;;5.43;2.03;;;5.70;99.90;;;;;;5150073;27;20039;-47
2023/12/04 08:45:29;;;;;;;4.97;2.60;;;5.70;99.90;;;;;;5149747;27;20019;-46
2023/12/04 08:47:55;;;;;;;7.30;2.65;;;5.70;99.90;;;;;;5149599;27;20031;-48
2023/12/04 08:50:21;;;;;;;6.85;2.20;;;5.70;99.90;;;;;;5149871;27;20184;-48
2023/12/04 08:52:46;;;;;;;4.47;2.10;;;5.70;99.90;;;;;;5148542;27;20015;-47
2023/12/04 08:55:12;;;;;;;4.38;2.10;;;5.70;99.90;;;;;;5148364;27;20307;-45
2023/12/04 08:57:38;;;;;;;7.35;2.40;;;5.80;99.90;;;;;;5149515;27;20031;-45
2023/12/04 09:00:04;;;;;;;5.13;1.92;;;5.80;99.90;;;;;;5149150;27;20082;-45
2023/12/04 09:02:31;;;;;;;7.78;2.40;;;5.80;99.90;;;;;;5149164;27;20356;-46
2023/12/04 09:04:56;;;;;;;5.68;2.20;;;5.80;99.90;;;;;;5149150;27;20030;-46
2023/12/04 09:07:22;;;;;;;6.60;2.17;;;5.80;99.90;;;;;;5130806;27;20067;-45
2023/12/04 09:09:48;;;;;;;5.90;1.92;;;5.80;99.90;;;;;;5149070;27;20035;-45
2023/12/04 09:12:13;;;;;;;4.72;1.88;;;5.80;99.90;;;;;;5149309;27;20046;-44
2023/12/04 09:14:39;;;;;;;6.28;2.55;;;5.80;99.90;;;;;;5148452;27;20280;-45
2023/12/04 09:17:05;;;;;;;6.40;2.20;;;5.90;99.90;;;;;;5149372;27;20015;-45
2023/12/04 09:19:31;;;;;;;5.85;2.10;;;5.80;99.90;;;;;;5148138;27;20027;-46
2023/12/04 09:21:57;;;;;;;6.95;2.13;;;5.90;99.90;;;;;;5149200;27;20280;-45
2023/12/04 09:24:23;;;;;;;7.93;2.47;;;5.90;99.90;;;;;;5149129;27;20091;-45
2023/12/04 09:26:49;;;;;;;3.95;1.60;;;5.90;99.90;;;;;;5149174;27;20281;-44
2023/12/04 09:29:16;;;;;;;4.40;1.67;;;5.90;99.90;;;;;;5149057;27;20169;-44
2023/12/04 09:31:42;;;;;;;5.50;1.67;;;5.90;99.90;;;;;;5148682;27;20026;-45
2023/12/04 09:34:08;;;;;;;10.75;2.17;;;5.90;99.90;;;;;;5147921;27;20023;-47
2023/12/04 09:36:34;;;;;;;4.15;1.58;;;5.90;99.90;;;;;;5147818;27;20034;-47
2023/12/04 09:39:00;;;;;;;6.80;1.63;;;5.90;99.90;;;;;;5148973;27;20020;-47
2023/12/04 09:41:25;;;;;;;6.80;2.17;;;6.00;99.90;;;;;;5149216;27;20046;-47
2023/12/04 09:43:51;;;;;;;5.13;1.35;;;6.00;99.90;;;;;;5146846;27;20214;-46
2023/12/04 09:46:17;;;;;;;11.88;6.85;;;6.00;99.90;;;;;;5130615;27;20038;-44
2023/12/04 09:48:43;;;;;;;4.50;1.38;;;6.00;99.90;;;;;;5148531;27;20054;-45
2023/12/04 09:51:09;;;;;;;4.22;1.30;;;6.00;99.90;;;;;;5148802;27;20023;-46
2023/12/04 09:53:35;;;;;;;6.60;1.83;;;6.00;99.90;;;;;;5147546;27;20071;-45
2023/12/04 09:56:03;;;;;;;3.55;1.40;;;6.10;99.90;;;;;;5148363;27;20031;-46
2023/12/04 09:58:29;;;;;;;4.85;1.45;;;6.10;99.90;;;;;;5130332;27;20019;-45
2023/12/04 10:00:55;;;;;;;7.70;1.70;;;6.10;99.90;;;;;;5147421;27;20023;-45
2023/12/04 10:03:20;;;;;;;3.92;1.33;;;6.10;99.90;;;;;;5147371;27;20110;-45
2023/12/04 10:05:46;;;;;;;5.38;1.60;;;6.10;99.90;;;;;;5148112;27;20034;-46
2023/12/04 10:08:12;;;;;;;5.70;1.55;;;6.10;99.90;;;;;;5147213;27;20102;-46
2023/12/04 10:10:38;;;;;;;6.45;1.63;;;6.20;99.90;;;;;;5147919;27;20027;-45
2023/12/04 10:13:03;;;;;;;3.00;1.25;;;6.20;99.90;;;;;;5147599;27;20136;-45
2023/12/04 10:15:29;;;;;;;3.50;1.17;;;6.20;99.90;;;;;;5148082;27;20023;-45
2023/12/04 10:17:55;;;;;;;5.72;1.30;;;6.20;99.90;;;;;;5147510;27;20098;-46
2023/12/04 10:20:21;;;;;;;6.07;1.98;;;6.20;99.90;;;;;;5147652;27;20027;-45
2023/12/04 10:22:54;;;;;;;9.80;8.68;;;6.20;99.90;;;;;;5148200;27;20146;-47
2023/12/04 10:25:20;;;;;;;5.45;1.50;;;6.20;99.90;;;;;;5148129;27;20269;-46
2023/12/04 10:27:46;;;;;;;3.72;1.50;;;6.20;99.90;;;;;;5146678;27;20289;-46
2023/12/04 10:30:23;;;;;;;9.05;2.28;;;6.20;99.90;;;;;;5147816;27;20062;-48
2023/12/04 10:32:49;;;;;;;4.97;1.40;;;6.20;99.90;;;;;;5147717;27;20039;-47
2023/12/04 10:35:14;;;;;;;5.13;1.85;;;6.30;99.90;;;;;;5147875;27;20288;-48
2023/12/04 10:37:41;;;;;;;5.97;1.45;;;6.30;99.90;;;;;;5147183;27;20019;-48
2023/12/04 10:40:10;;;;;;;3.15;1.40;;;6.30;99.90;;;;;;5147244;27;20048;-48
2023/12/04 10:42:36;;;;;;;5.45;1.85;;;6.30;99.90;;;;;;5145993;27;20027;-48
2023/12/04 10:45:01;;;;;;;6.00;1.60;;;6.40;99.90;;;;;;5146438;27;20034;-48
2023/12/04 10:47:29;;;;;;;2.30;0.85;;;6.40;99.90;;;;;;5146299;27;20055;-48
2023/12/04 10:49:54;;;;;;;3.67;1.60;;;6.40;99.90;;;;;;5147206;27;20038;-45
2023/12/04 10:52:21;;;;;;;5.45;1.70;;;6.40;99.90;;;;;;5146187;27;20082;-48
2023/12/04 10:54:49;;;;;;;4.50;1.50;;;6.40;99.90;;;;;;5147185;27;20028;-48
2023/12/04 10:57:31;;;;;;;4.47;1.38;;;6.40;99.90;;;;;;5146366;27;20023;-48
2023/12/04 11:00:05;;;;;;;5.80;1.20;;;6.40;99.90;;;;;;5147284;27;20035;-48
2023/12/04 11:02:33;;;;;;;5.45;1.55;;;6.40;99.90;;;;;;5147325;27;20023;-49
2023/12/04 11:05:07;;;;;;;5.60;3.10;;;6.40;99.90;;;;;;5146235;27;20034;-47
2023/12/04 11:07:33;;;;;;;3.78;1.20;;;6.50;99.90;;;;;;5146826;27;20043;-47
2023/12/04 11:09:59;;;;;;;3.83;1.15;;;6.50;99.90;;;;;;5112155;27;20054;-48
2023/12/04 11:12:25;;;;;;;4.75;1.35;;;6.50;99.90;;;;;;5145808;27;20285;-47
2023/12/04 11:14:55;;;;;;;2.10;1.00;;;6.50;99.90;;;;;;5146791;27;20011;-50
2023/12/04 11:17:21;;;;;;;;;;;6.50;99.90;;;;;;5146449;27;20083;-48
2023/12/04 11:19:54;;;;;;;3.40;1.02;;;6.50;99.90;;;;;;5145799;27;20157;-48
2023/12/04 11:22:20;;;;;;;2.80;1.00;;;6.60;99.90;;;;;;5146549;27;20145;-46
2023/12/04 11:24:49;;;;;;;4.97;1.35;;;6.60;99.90;;;;;;5146303;27;20031;-46
2023/12/04 11:27:16;;;;;;;5.15;1.25;;;6.60;99.90;;;;;;5145654;27;20034;-45
2023/12/04 11:29:42;;;;;;;1.85;0.80;;;6.60;99.90;;;;;;5145609;27;20087;-46
2023/12/04 11:32:10;;;;;;;4.32;1.10;;;6.70;99.90;;;;;;5128573;27;20031;-47
2023/12/04 11:34:36;;;;;;;2.75;1.23;;;6.70;99.90;;;;;;5129128;27;20049;-45
2023/12/04 11:37:02;;;;;;;3.97;1.23;;;6.70;99.90;;;;;;5145730;27;20019;-48
2023/12/04 11:39:28;;;;;;;5.32;1.23;;;6.80;99.90;;;;;;5145570;27;20047;-50
2023/12/04 11:41:54;;;;;;;3.33;0.90;;;6.80;99.90;;;;;;5146175;27;20030;-50
2023/12/04 11:44:20;;;;;;;2.17;1.20;;;6.80;99.90;;;;;;5128372;28;20153;-51
2023/12/04 11:46:56;;;;;;;4.05;1.40;;;6.80;99.90;;;;;;5145453;27;20026;-50
2023/12/04 11:49:25;;;;;;;4.90;0.90;;;6.90;99.90;;;;;;5146427;27;20079;-48
2023/12/04 11:51:52;;;;;;;3.25;0.90;;;6.90;99.90;;;;;;5146220;28;20062;-48
2023/12/04 11:54:18;;;;;;;3.47;0.90;;;7.00;99.90;;;;;;5145480;28;20027;-50
2023/12/04 11:57:16;;;;;;;3.22;1.30;;;7.00;99.90;;;;;;5146437;28;20290;-51
2023/12/04 11:59:42;;;;;;;2.25;0.77;;;7.00;99.90;;;;;;5112176;27;20269;-49
2023/12/04 12:02:08;;;;;;;1.17;0.73;;;7.00;99.90;;;;;;5145958;28;20027;-48
2023/12/04 12:04:34;;;;;;;2.83;1.00;;;7.10;99.90;;;;;;5146198;28;20082;-50
2023/12/04 12:07:02;;;;;;;2.20;0.98;;;7.10;99.90;;;;;;5129362;27;20061;-50
2023/12/04 12:09:32;;;;;;;3.13;1.15;;;7.20;99.90;;;;;;5149440;27;20027;-51
2023/12/04 12:11:59;;;;;;;;;;;7.10;99.90;;;;;;5150338;27;20307;-50
2023/12/04 12:14:25;;;;;;;4.30;1.55;;;7.10;99.90;;;;;;5150159;27;19937;-50
2023/12/04 12:16:50;;;;;;;5.38;1.88;;;7.20;99.90;;;;;;5150072;27;20034;-51
2023/12/04 12:19:18;;;;;;;9.63;2.75;;;7.20;99.90;;;;;;5149099;27;20102;-51
2023/12/04 12:21:45;;;;;;;5.22;1.50;;;7.20;99.90;;;;;;5149172;27;20031;-49
2023/12/04 12:24:11;;;;;;;3.95;1.23;;;7.20;99.90;;;;;;5149889;27;20023;-50
2023/12/04 12:26:37;;;;;;;1.88;0.80;;;7.20;99.90;;;;;;5149731;27;20031;-50
2023/12/04 12:29:03;;;;;;;4.22;1.02;;;7.20;99.90;;;;;;5150124;27;20042;-47
2023/12/04 12:31:29;;;;;;;3.95;1.50;;;7.20;99.90;;;;;;5148554;27;20174;-50
2023/12/04 12:33:55;;;;;;;1.63;0.90;;;7.30;99.90;;;;;;5149931;27;20034;-50
2023/12/04 12:36:21;;;;;;;3.65;2.30;;;7.30;99.90;;;;;;5149982;27;20107;-50
2023/12/04 12:38:49;;;;;;;2.28;0.90;;;7.20;99.90;;;;;;5149630;27;20021;-50
2023/12/04 12:41:16;;;;;;;5.03;1.73;;;7.20;99.90;;;;;;5148406;27;20030;-50
2023/12/04 12:43:42;;;;;;;3.42;1.50;;;7.30;99.90;;;;;;5149216;27;20030;-50
2023/12/04 12:46:09;;;;;;;3.33;1.10;;;7.30;99.90;;;;;;5149631;27;20031;-49
2023/12/04 12:48:34;;;;;;;1.92;0.93;;;7.30;99.90;;;;;;5131685;27;20086;-47